createdAt,value
2018-09-12T00:01:49.152Z,44.57
2018-09-12T00:04:17.997Z,44.17
2018-09-12T00:06:47.016Z,43.58
2018-09-12T00:09:15.822Z,44.50
2018-09-12T00:11:44.640Z,44.05
2018-09-12T00:14:13.638Z,43.99
2018-09-12T00:16:42.513Z,43.94
2018-09-12T00:19:11.398Z,43.65
2018-09-12T00:21:40.346Z,43.77
2018-09-12T00:24:09.211Z,44.51
2018-09-12T00:26:37.924Z,44.34
2018-09-12T00:29:07.106Z,44.43
2018-09-12T00:31:35.965Z,44.45
2018-09-12T00:34:04.620Z,44.94
2018-09-12T00:36:33.616Z,44.71
2018-09-12T00:39:02.646Z,44.90
2018-09-12T00:41:31.537Z,44.81
2018-09-12T00:44:00.228Z,45.31
2018-09-12T00:46:29.211Z,45.99
2018-09-12T00:48:58.521Z,46.07
2018-09-12T00:51:27.296Z,45.96
2018-09-12T00:53:56.296Z,45.47
2018-09-12T00:56:25.433Z,45.15
2018-09-12T00:58:54.691Z,45.38
2018-09-12T01:01:23.577Z,46.06
2018-09-12T01:03:52.342Z,45.34
2018-09-12T01:06:21.705Z,45.41
2018-09-12T01:08:53.318Z,45.61
2018-09-12T01:11:23.984Z,44.96
2018-09-12T01:13:53.902Z,45.74
2018-09-12T01:16:23.224Z,45.21
2018-09-12T01:18:52.131Z,45.20
2018-09-12T01:21:21.067Z,45.31
2018-09-12T01:23:49.880Z,45.78
2018-09-12T01:26:18.803Z,45.28
2018-09-12T01:28:47.857Z,45.52
2018-09-12T01:31:16.808Z,45.39
2018-09-12T01:33:45.663Z,45.40
2018-09-12T01:36:14.296Z,45.32
2018-09-12T01:38:43.195Z,46.10
2018-09-12T01:41:13.053Z,46.57
2018-09-12T01:43:41.959Z,46.30
2018-09-12T01:46:10.862Z,46.32
2018-09-12T01:48:39.463Z,46.04
2018-09-12T01:51:08.682Z,45.80
2018-09-12T01:53:37.544Z,45.88
2018-09-12T01:56:06.446Z,46.63
2018-09-12T01:58:35.674Z,45.65
2018-09-12T02:01:04.649Z,46.21
2018-09-12T02:03:33.720Z,45.77
2018-09-12T02:06:02.641Z,46.07
2018-09-12T02:08:31.526Z,46.47
2018-09-12T02:11:01.373Z,46.08
2018-09-12T02:13:30.967Z,46.29
2018-09-12T02:16:00.313Z,46.78
2018-09-12T02:18:29.318Z,46.59
2018-09-12T02:20:58.215Z,47.18
2018-09-12T02:23:27.228Z,46.58
2018-09-12T02:25:56.305Z,47.35
2018-09-12T02:28:25.194Z,47.08
2018-09-12T02:30:54.825Z,47.35
2018-09-12T02:33:23.798Z,47.48
2018-09-12T02:35:57.790Z,48.12
2018-09-12T02:38:26.582Z,48.04
2018-09-12T02:40:55.522Z,46.84
2018-09-12T02:43:24.564Z,46.74
2018-09-12T02:45:53.628Z,47.02
2018-09-12T02:48:22.664Z,47.45
2018-09-12T02:50:51.515Z,47.27
2018-09-12T02:53:20.363Z,47.58
2018-09-12T02:55:49.350Z,47.83
2018-09-12T02:58:18.359Z,47.50
2018-09-12T03:00:47.434Z,47.79
2018-09-12T03:03:16.849Z,47.90
2018-09-12T03:05:45.658Z,47.97
2018-09-12T03:08:14.574Z,47.77
2018-09-12T03:13:09.699Z,47.39
2018-09-12T03:15:38.609Z,48.42
2018-09-12T03:18:07.652Z,48.53
2018-09-12T03:20:38.305Z,47.85
2018-09-12T03:23:07.062Z,48.31
2018-09-12T03:25:36.492Z,48.71
2018-09-12T03:28:05.712Z,48.18
2018-09-12T03:30:34.870Z,48.20
2018-09-12T03:33:03.680Z,48.43
2018-09-12T03:35:32.611Z,47.59
2018-09-12T03:38:01.395Z,46.98
2018-09-12T03:40:30.366Z,47.11
2018-09-12T03:42:59.717Z,47.24
2018-09-12T03:45:28.661Z,47.81
2018-09-12T03:47:58.007Z,47.48
2018-09-12T03:50:26.879Z,47.77
2018-09-12T03:52:56.018Z,47.48
2018-09-12T03:55:25.616Z,47.62
2018-09-12T03:57:54.776Z,48.10
2018-09-12T04:00:23.923Z,48.08
2018-09-12T04:02:53.072Z,48.85
2018-09-12T04:05:21.973Z,48.77
2018-09-12T04:07:50.968Z,48.45
2018-09-12T04:10:19.931Z,48.27
2018-09-12T04:12:49.479Z,48.39
2018-09-12T04:15:18.651Z,48.70
2018-09-12T04:17:47.561Z,48.83
2018-09-12T04:20:16.375Z,48.88
2018-09-12T04:22:45.355Z,48.95
2018-09-12T04:25:15.025Z,48.53
2018-09-12T04:27:43.978Z,48.66
2018-09-12T04:30:13.135Z,49.67
2018-09-12T04:32:42.100Z,49.64
2018-09-12T04:35:11.010Z,48.84
2018-09-12T04:37:40.043Z,48.49
2018-09-12T04:40:09.207Z,48.60
2018-09-12T04:42:37.867Z,49.58
2018-09-12T04:45:07.113Z,48.11
2018-09-12T04:47:36.037Z,49.35
2018-09-12T04:50:05.112Z,48.28
2018-09-12T04:52:34.121Z,48.74
2018-09-12T04:55:02.897Z,48.15
2018-09-12T04:57:31.977Z,48.58
2018-09-12T05:00:01.189Z,48.66
2018-09-12T05:02:30.126Z,48.80
2018-09-12T05:04:59.571Z,49.62
2018-09-12T05:07:28.260Z,48.62
2018-09-12T05:09:57.489Z,48.85
2018-09-12T05:12:26.412Z,48.88
2018-09-12T05:14:55.287Z,49.52
2018-09-12T05:17:24.102Z,49.10
2018-09-12T05:19:53.204Z,51.38
2018-09-12T05:22:22.768Z,48.48
2018-09-12T05:24:51.763Z,48.70
2018-09-12T05:27:20.668Z,47.84
2018-09-12T05:29:49.676Z,48.07
2018-09-12T05:32:18.798Z,51.21
2018-09-12T05:34:47.731Z,46.11
2018-09-12T05:37:16.418Z,48.43
2018-09-12T05:39:45.360Z,43.86
2018-09-12T05:42:14.397Z,44.65
2018-09-12T05:44:43.345Z,46.11
2018-09-12T05:47:12.184Z,46.10
2018-09-12T05:49:41.389Z,47.67
2018-09-12T05:52:10.514Z,46.43
2018-09-12T05:54:39.383Z,44.34
2018-09-12T05:57:08.458Z,42.13
2018-09-12T05:59:37.579Z,41.79
2018-09-12T06:02:07.173Z,41.78
2018-09-12T06:04:36.011Z,39.35
2018-09-12T06:07:05.175Z,41.17
2018-09-12T06:09:34.209Z,42.21
2018-09-12T06:12:03.088Z,42.83
2018-09-12T06:14:31.929Z,42.99
2018-09-12T06:17:00.848Z,43.40
2018-09-12T06:19:29.590Z,45.39
2018-09-12T06:21:58.621Z,43.54
2018-09-12T06:24:27.598Z,44.23
2018-09-12T06:26:56.418Z,44.98
2018-09-12T06:29:25.393Z,44.88
2018-09-12T06:31:54.287Z,44.63
2018-09-12T06:34:23.082Z,44.19
2018-09-12T06:36:51.918Z,44.23
2018-09-12T06:39:20.986Z,44.26
2018-09-12T06:41:49.782Z,43.84
2018-09-12T06:44:18.569Z,44.22
2018-09-12T06:46:47.485Z,43.14
2018-09-12T06:49:16.472Z,43.05
2018-09-12T06:51:46.003Z,43.18
2018-09-12T06:54:15.108Z,43.10
2018-09-12T06:56:44.123Z,42.86
2018-09-12T06:59:14.970Z,43.13
2018-09-12T07:01:44.154Z,42.40
2018-09-12T07:04:12.967Z,42.15
2018-09-12T07:06:42.569Z,42.05
2018-09-12T07:09:12.178Z,42.67
2018-09-12T07:11:41.187Z,41.45
2018-09-12T07:14:10.215Z,41.00
2018-09-12T07:16:39.296Z,40.44
2018-09-12T07:19:08.250Z,39.88
2018-09-12T07:21:37.221Z,39.84
2018-09-12T07:24:06.076Z,39.69
2018-09-12T07:26:35.109Z,38.97
2018-09-12T07:29:04.792Z,38.52
2018-09-12T07:31:33.856Z,38.47
2018-09-12T07:34:02.755Z,38.05
2018-09-12T07:36:32.139Z,37.07
2018-09-12T07:39:01.007Z,35.99
2018-09-12T07:41:30.114Z,36.84
2018-09-12T07:43:59.151Z,36.59
2018-09-12T07:46:27.996Z,35.20
2018-09-12T07:48:56.720Z,35.06
2018-09-12T07:51:26.203Z,34.63
2018-09-12T07:53:55.920Z,33.91
2018-09-12T07:56:24.732Z,33.39
2018-09-12T07:58:53.648Z,33.83
2018-09-12T08:01:22.612Z,33.49
2018-09-12T08:03:51.563Z,32.99
2018-09-12T08:06:20.735Z,32.61
2018-09-12T08:08:49.561Z,32.06
2018-09-12T08:11:18.460Z,32.28
2018-09-12T08:13:47.861Z,32.48
2018-09-12T08:16:16.553Z,31.91
2018-09-12T08:18:45.392Z,31.20
2018-09-12T08:21:14.247Z,31.25
2018-09-12T08:23:43.015Z,32.44
2018-09-12T08:26:12.040Z,30.64
2018-09-12T08:28:40.744Z,30.15
2018-09-12T08:31:10.171Z,32.86
2018-09-12T08:33:38.958Z,30.56
2018-09-12T08:36:07.799Z,31.58
2018-09-12T08:38:36.714Z,30.73
2018-09-12T08:41:05.837Z,29.07
2018-09-12T08:43:34.580Z,29.65
2018-09-12T08:46:03.289Z,29.88
2018-09-12T08:48:32.098Z,30.09
2018-09-12T08:51:00.886Z,29.90
2018-09-12T08:53:29.884Z,29.18
2018-09-12T08:55:58.870Z,30.03
2018-09-12T08:58:27.647Z,29.57
2018-09-12T09:00:56.684Z,30.66
2018-09-12T09:03:25.646Z,30.26
2018-09-12T09:05:55.393Z,28.49
2018-09-12T09:08:24.554Z,27.63
2018-09-12T09:10:53.631Z,27.16
2018-09-12T09:13:22.466Z,27.64
2018-09-12T09:15:51.520Z,27.59
2018-09-12T09:18:20.656Z,28.69
2018-09-12T09:20:49.556Z,26.97
2018-09-12T09:23:18.506Z,26.61
2018-09-12T09:25:47.516Z,26.11
2018-09-12T09:28:16.291Z,26.67
2018-09-12T09:30:45.354Z,25.36
2018-09-12T09:33:14.286Z,26.07
2018-09-12T09:35:43.371Z,26.61
2018-09-12T09:38:12.222Z,25.25
2018-09-12T09:40:42.047Z,26.11
2018-09-12T09:43:10.926Z,25.90
2018-09-12T09:45:39.824Z,25.24
2018-09-12T09:48:08.780Z,25.80
2018-09-12T09:50:37.671Z,24.92
2018-09-12T09:53:06.292Z,23.92
2018-09-12T09:55:35.017Z,24.82
2018-09-12T09:58:03.997Z,25.24
2018-09-12T10:00:37.979Z,25.08
2018-09-12T10:03:13.155Z,23.70
2018-09-12T10:05:47.183Z,22.75
2018-09-12T10:08:21.177Z,22.17
2018-09-12T10:10:50.203Z,22.71
2018-09-12T10:13:18.890Z,22.91
2018-09-12T10:15:47.707Z,21.58
2018-09-12T10:18:16.454Z,22.44
2018-09-12T10:20:45.256Z,22.18
2018-09-12T10:23:14.182Z,22.62
2018-09-12T10:25:42.971Z,22.51
2018-09-12T10:28:11.810Z,22.03
2018-09-12T10:30:40.723Z,22.09
2018-09-12T10:33:09.648Z,22.51
2018-09-12T10:35:38.313Z,21.88
2018-09-12T10:38:07.061Z,22.59
2018-09-12T10:40:35.952Z,21.77
2018-09-12T10:43:04.888Z,22.00
2018-09-12T10:45:34.275Z,21.82
2018-09-12T10:48:03.295Z,21.42
2018-09-12T10:50:32.073Z,21.50
2018-09-12T10:53:01.406Z,20.58
2018-09-12T10:55:30.274Z,20.87
2018-09-12T10:57:59.356Z,20.69
2018-09-12T11:00:28.473Z,21.13
2018-09-12T11:02:57.284Z,21.58
2018-09-12T11:05:26.232Z,20.89
2018-09-12T11:07:55.148Z,21.09
2018-09-12T11:10:24.122Z,21.27
2018-09-12T11:12:52.863Z,20.96
2018-09-12T11:15:22.467Z,21.55
2018-09-12T11:17:51.390Z,21.27
2018-09-12T11:20:20.591Z,21.20
2018-09-12T11:22:50.103Z,20.48
2018-09-12T11:25:19.090Z,21.06
2018-09-12T11:27:48.281Z,20.43
2018-09-12T11:30:18.547Z,20.62
2018-09-12T11:32:47.774Z,20.17
2018-09-12T11:35:17.141Z,20.86
2018-09-12T11:37:45.963Z,19.71
2018-09-12T11:40:14.861Z,19.76
2018-09-12T11:42:43.650Z,19.25
2018-09-12T11:45:12.633Z,17.88
2018-09-12T11:47:41.443Z,17.87
2018-09-12T11:50:10.145Z,17.36
2018-09-12T11:52:38.986Z,17.72
2018-09-12T11:55:08.660Z,16.72
2018-09-12T11:57:38.128Z,16.06
2018-09-12T12:00:07.799Z,14.86
2018-09-12T12:02:42.608Z,14.31
2018-09-12T12:05:11.533Z,13.41
2018-09-12T12:07:42.029Z,12.99
2018-09-12T12:10:10.929Z,12.43
2018-09-12T12:12:40.020Z,11.67
2018-09-12T12:15:09.191Z,10.88
2018-09-12T12:17:38.653Z,9.86
2018-09-12T12:20:07.880Z,8.83
2018-09-12T12:22:36.681Z,8.64
2018-09-12T12:25:06.168Z,7.92
2018-09-12T12:27:35.293Z,9.40
2018-09-12T12:30:04.281Z,9.76
2018-09-12T12:32:33.122Z,9.97
2018-09-12T12:35:02.076Z,8.66
2018-09-12T12:37:30.878Z,7.70
2018-09-12T12:39:59.597Z,6.68
2018-09-12T12:42:28.301Z,6.70
2018-09-12T12:44:57.185Z,7.09
2018-09-12T12:47:25.885Z,7.03
2018-09-12T12:49:54.997Z,7.53
2018-09-12T12:52:24.039Z,7.71
2018-09-12T12:54:52.937Z,7.26
2018-09-12T12:57:21.941Z,6.60
2018-09-12T12:59:50.773Z,6.30
2018-09-12T13:02:19.723Z,6.48
2018-09-12T13:04:48.506Z,5.84
2018-09-12T13:07:17.907Z,6.49
2018-09-12T13:09:46.631Z,7.86
2018-09-12T13:12:15.811Z,8.02
2018-09-12T13:14:44.753Z,8.20
2018-09-12T13:17:13.470Z,6.90
2018-09-12T13:19:42.242Z,7.18
2018-09-12T13:22:11.063Z,7.92
2018-09-12T13:24:39.960Z,7.40
2018-09-12T13:27:08.765Z,6.44
2018-09-12T13:29:37.831Z,6.43
2018-09-12T13:32:06.612Z,7.81
2018-09-12T13:34:35.946Z,6.80
2018-09-12T13:37:05.415Z,8.27
2018-09-12T13:39:34.350Z,7.77
2018-09-12T13:42:03.323Z,7.54
2018-09-12T13:44:32.323Z,8.24
2018-09-12T13:47:01.513Z,7.41
2018-09-12T13:49:30.237Z,5.32
2018-09-12T13:51:59.321Z,5.45
2018-09-12T13:54:28.161Z,6.28
2018-09-12T13:56:57.095Z,6.47
2018-09-12T13:59:25.881Z,6.78
2018-09-12T14:05:00.255Z,6.78
2018-09-12T14:07:29.070Z,7.20
2018-09-12T14:09:57.892Z,7.52
2018-09-12T14:12:26.661Z,7.96
2018-09-12T14:14:55.755Z,7.24
2018-09-12T14:17:24.714Z,8.44
2018-09-12T14:19:53.711Z,8.08
2018-09-12T14:22:22.670Z,6.50
2018-09-12T14:24:51.543Z,6.13
2018-09-12T14:27:20.545Z,9.17
2018-09-12T14:29:49.319Z,8.23
2018-09-12T14:32:18.651Z,7.46
2018-09-12T14:34:47.536Z,6.94
2018-09-12T14:37:16.429Z,6.69
2018-09-12T14:39:45.377Z,6.88
2018-09-12T14:42:14.245Z,7.12
2018-09-12T14:44:42.920Z,7.47
2018-09-12T14:47:11.760Z,6.65
2018-09-12T14:49:41.057Z,6.25
2018-09-12T14:52:09.928Z,8.02
2018-09-12T14:54:38.958Z,9.26
2018-09-12T14:57:07.811Z,8.66
2018-09-12T14:59:36.904Z,8.67
2018-09-12T15:02:06.048Z,9.66
2018-09-12T15:04:35.009Z,10.01
2018-09-12T15:07:03.819Z,10.01
2018-09-12T15:09:32.643Z,10.93
2018-09-12T15:12:01.427Z,11.52
2018-09-12T15:14:30.466Z,11.63
2018-09-12T15:16:59.391Z,11.54
2018-09-12T15:19:28.472Z,11.44
2018-09-12T15:21:57.246Z,13.32
2018-09-12T15:24:26.244Z,12.36
2018-09-12T15:26:55.463Z,13.47
2018-09-12T15:29:24.307Z,13.65
2018-09-12T15:31:53.012Z,14.14
2018-09-12T15:34:21.818Z,14.02
2018-09-12T15:36:50.914Z,13.82
2018-09-12T15:39:19.966Z,13.35
2018-09-12T15:41:48.663Z,13.27
2018-09-12T15:44:17.442Z,13.13
2018-09-12T15:46:46.475Z,14.30
2018-09-12T15:49:16.126Z,14.58
2018-09-12T15:51:45.558Z,14.78
2018-09-12T15:54:14.173Z,15.34
2018-09-12T15:56:43.317Z,14.90
2018-09-12T15:59:12.595Z,15.63
2018-09-12T16:01:42.331Z,15.75
2018-09-12T16:04:11.322Z,16.07
2018-09-12T16:06:40.331Z,16.45
2018-09-12T16:09:10.179Z,16.84
2018-09-12T16:11:38.760Z,16.02
2018-09-12T16:14:07.576Z,14.06
2018-09-12T16:16:36.420Z,13.02
2018-09-12T16:19:06.010Z,12.72
2018-09-12T16:21:34.912Z,12.33
2018-09-12T16:24:03.785Z,13.64
2018-09-12T16:26:32.503Z,14.26
2018-09-12T16:29:01.441Z,15.84
2018-09-12T16:31:30.947Z,16.30
2018-09-12T16:33:59.876Z,16.76
2018-09-12T16:36:29.206Z,16.52
2018-09-12T16:38:58.090Z,17.08
2018-09-12T16:41:26.984Z,17.09
2018-09-12T16:43:55.868Z,17.50
2018-09-12T16:46:24.909Z,17.92
2018-09-12T16:48:54.178Z,18.55
2018-09-12T16:51:23.189Z,18.68
2018-09-12T16:53:51.928Z,19.22
2018-09-12T16:56:20.800Z,19.19
2018-09-12T16:58:49.782Z,19.04
2018-09-12T17:01:18.606Z,19.40
2018-09-12T17:03:47.914Z,20.42
2018-09-12T17:06:17.029Z,20.78
2018-09-12T17:08:46.171Z,21.25
2018-09-12T17:14:05.931Z,20.65
2018-09-12T17:16:34.769Z,21.99
2018-09-12T17:19:03.951Z,22.17
2018-09-12T17:21:33.037Z,22.85
2018-09-12T17:24:02.445Z,22.61
2018-09-12T17:26:31.293Z,23.47
2018-09-12T17:29:00.391Z,23.48
2018-09-12T17:34:22.516Z,23.48
2018-09-12T17:39:44.384Z,23.98
2018-09-12T17:42:13.082Z,24.87
2018-09-12T17:44:41.839Z,24.89
2018-09-12T17:47:10.911Z,25.17
2018-09-12T17:49:39.912Z,25.49
2018-09-12T17:57:54.329Z,27.10
2018-09-12T18:00:23.370Z,26.80
2018-09-12T18:02:52.325Z,27.19
2018-09-12T18:05:21.224Z,27.12
2018-09-12T18:07:50.324Z,27.14
2018-09-12T18:10:19.294Z,27.55
2018-09-12T18:16:05.512Z,27.58
2018-09-12T18:18:34.267Z,28.39
2018-09-12T18:21:03.316Z,28.53
2018-09-12T18:23:32.956Z,28.14
2018-09-12T18:26:01.771Z,28.07
2018-09-12T18:28:30.843Z,29.85
2018-09-12T18:31:00.311Z,29.75
2018-09-12T18:33:29.121Z,29.34
2018-09-12T18:41:42.054Z,29.33
2018-09-12T18:47:01.964Z,29.78
2018-09-12T18:52:22.064Z,29.75
2018-09-12T18:54:51.362Z,29.53
2018-09-12T18:57:20.158Z,28.46
2018-09-12T18:59:48.933Z,29.26
2018-09-12T19:02:18.007Z,28.71
2018-09-12T19:07:37.669Z,28.65
2018-09-12T19:10:06.443Z,29.36
2018-09-12T19:12:35.555Z,29.61
2018-09-12T19:15:04.563Z,29.86
2018-09-12T19:17:33.472Z,30.03
2018-09-12T19:22:53.019Z,30.11
2018-09-12T19:25:22.571Z,29.78
2018-09-12T19:27:51.924Z,30.13
2018-09-12T19:30:21.223Z,31.45
2018-09-12T19:32:50.683Z,31.20
2018-09-12T19:35:19.686Z,30.94
2018-09-12T19:37:49.594Z,31.51
2018-09-12T19:40:18.702Z,31.17
2018-09-12T19:42:47.547Z,31.45
2018-09-12T19:45:16.752Z,31.58
2018-09-12T19:47:45.755Z,31.35
2018-09-12T19:50:15.564Z,31.29
2018-09-12T19:52:44.669Z,31.25
2018-09-12T19:55:13.541Z,31.34
2018-09-12T19:57:42.650Z,31.42
2018-09-12T20:00:16.249Z,31.04
2018-09-12T20:02:45.995Z,31.38
2018-09-12T20:05:15.437Z,31.45
2018-09-12T20:10:47.733Z,32.32
2018-09-12T20:13:18.125Z,32.35
2018-09-12T20:15:47.180Z,31.64
2018-09-12T20:18:16.218Z,31.33
2018-09-12T20:20:45.338Z,31.62
2018-09-12T20:23:14.331Z,31.71
2018-09-12T20:25:43.625Z,31.81
2018-09-12T20:28:15.619Z,32.25
2018-09-12T20:30:44.796Z,33.17
2018-09-12T20:33:13.652Z,34.40
2018-09-12T20:35:43.021Z,35.88
2018-09-12T20:38:11.974Z,36.40
2018-09-12T20:40:40.968Z,36.08
2018-09-12T20:43:09.969Z,35.89
2018-09-12T20:45:39.253Z,34.59
2018-09-12T20:48:08.258Z,36.28
2018-09-12T20:50:37.368Z,35.52
2018-09-12T20:53:06.425Z,37.55
2018-09-12T20:55:35.589Z,38.04
2018-09-12T20:58:06.639Z,42.63
2018-09-12T21:00:35.652Z,43.77
2018-09-12T21:03:04.818Z,47.83
2018-09-12T21:05:33.891Z,46.58
2018-09-12T21:08:03.703Z,47.90
2018-09-12T21:10:34.351Z,46.88
2018-09-12T21:13:03.605Z,45.99
2018-09-12T21:15:32.780Z,46.13
2018-09-12T21:18:03.021Z,45.41
2018-09-12T21:20:32.633Z,44.27
2018-09-12T21:23:04.432Z,46.70
2018-09-12T21:25:33.631Z,45.44
2018-09-12T21:28:02.812Z,44.36
2018-09-12T21:30:31.809Z,42.56
2018-09-12T21:33:01.381Z,42.29
2018-09-12T21:35:30.504Z,43.95
2018-09-12T21:37:59.504Z,44.67
2018-09-12T21:40:28.608Z,43.11
2018-09-12T21:42:57.798Z,43.91
2018-09-12T21:45:26.714Z,43.00
2018-09-12T21:47:55.740Z,43.37
2018-09-12T21:50:24.829Z,43.16
2018-09-12T21:52:53.776Z,43.21
2018-09-12T21:55:22.843Z,42.46
2018-09-12T21:57:51.959Z,42.59
2018-09-12T22:00:20.781Z,43.63
2018-09-12T22:02:50.259Z,46.12
2018-09-12T22:05:19.821Z,44.46
2018-09-12T22:07:48.817Z,46.82
2018-09-12T22:10:17.940Z,47.14
2018-09-12T22:12:46.868Z,44.54
2018-09-12T22:15:16.148Z,46.84
2018-09-12T22:17:45.164Z,45.97
2018-09-12T22:20:14.453Z,47.49
2018-09-12T22:22:43.467Z,48.60
2018-09-12T22:25:12.565Z,49.81
2018-09-12T22:27:41.282Z,51.55
2018-09-12T22:30:10.592Z,54.15
2018-09-12T22:32:40.265Z,55.56
2018-09-12T22:35:09.746Z,55.07
2018-09-12T22:37:38.900Z,54.92
2018-09-12T22:40:08.102Z,54.86
2018-09-12T22:42:37.215Z,53.85
2018-09-12T22:45:06.094Z,53.63
2018-09-12T22:47:34.947Z,52.98
2018-09-12T22:50:03.866Z,52.00
2018-09-12T22:52:32.606Z,52.54
2018-09-12T22:55:04.898Z,52.70
2018-09-12T22:57:36.685Z,52.84
2018-09-12T23:00:06.534Z,53.12
2018-09-12T23:02:35.503Z,55.17
2018-09-12T23:05:04.603Z,54.87
2018-09-12T23:07:33.462Z,54.55
2018-09-12T23:10:02.550Z,54.43
2018-09-12T23:12:31.267Z,53.99
2018-09-12T23:15:00.209Z,52.27
2018-09-12T23:17:29.451Z,53.40
2018-09-12T23:19:58.328Z,54.84
2018-09-12T23:22:27.266Z,55.63
2018-09-12T23:24:56.447Z,55.24
2018-09-12T23:27:25.314Z,54.36
2018-09-12T23:29:54.522Z,55.61
2018-09-12T23:32:23.617Z,55.76
2018-09-12T23:34:52.493Z,55.97
2018-09-12T23:37:21.615Z,56.13
2018-09-12T23:39:50.603Z,56.25
2018-09-12T23:42:19.790Z,56.29
2018-09-12T23:44:48.705Z,56.68
2018-09-12T23:47:17.804Z,57.23
2018-09-12T23:49:53.146Z,56.40
2018-09-12T23:52:22.587Z,53.98
2018-09-12T23:54:51.713Z,55.14
2018-09-12T23:57:20.735Z,55.59
2018-09-12T23:59:49.679Z,55.79
